sensor_id;sensor_type;location;lat;lon;timestamp;P1;durP1;ratioP1;P2;durP2;ratioP2
69981;SDS011;57319;56.274;43.980;2023-02-01T00:01:45;23.08;;;9.73;;
69981;SDS011;57319;56.274;43.980;2023-02-01T00:04:11;18.50;;;9.70;;
69981;SDS011;57319;56.274;43.980;2023-02-01T00:06:37;19.48;;;10.50;;
69981;SDS011;57319;56.274;43.980;2023-02-01T00:09:03;20.33;;;9.48;;
69981;SDS011;57319;56.274;43.980;2023-02-01T00:11:28;22.60;;;10.55;;
69981;SDS011;57319;56.274;43.980;2023-02-01T00:13:54;24.20;;;10.88;;
69981;SDS011;57319;56.274;43.980;2023-02-01T00:16:21;18.85;;;9.57;;
69981;SDS011;57319;56.274;43.980;2023-02-01T00:18:52;19.77;;;10.38;;
69981;SDS011;57319;56.274;43.980;2023-02-01T00:21:32;20.33;;;8.98;;
69981;SDS011;57319;56.274;43.980;2023-02-01T00:23:58;20.48;;;10.65;;
69981;SDS011;57319;56.274;43.980;2023-02-01T00:28:55;22.95;;;10.65;;
69981;SDS011;57319;56.274;43.980;2023-02-01T00:31:21;21.98;;;9.88;;
69981;SDS011;57319;56.274;43.980;2023-02-01T00:33:47;24.05;;;10.48;;
69981;SDS011;57319;56.274;43.980;2023-02-01T00:36:13;22.55;;;10.25;;
69981;SDS011;57319;56.274;43.980;2023-02-01T00:38:39;18.90;;;10.50;;
69981;SDS011;57319;56.274;43.980;2023-02-01T00:41:09;20.95;;;10.77;;
69981;SDS011;57319;56.274;43.980;2023-02-01T00:43:37;16.98;;;9.50;;
69981;SDS011;57319;56.274;43.980;2023-02-01T00:46:04;24.27;;;11.15;;
69981;SDS011;57319;56.274;43.980;2023-02-01T00:48:29;25.67;;;10.70;;
69981;SDS011;57319;56.274;43.980;2023-02-01T00:50:59;19.88;;;9.88;;
69981;SDS011;57319;56.274;43.980;2023-02-01T00:53:25;21.88;;;10.35;;
69981;SDS011;57319;56.274;43.980;2023-02-01T00:55:51;20.63;;;10.52;;
69981;SDS011;57319;56.274;43.980;2023-02-01T00:58:17;22.98;;;11.07;;
69981;SDS011;57319;56.274;43.980;2023-02-01T01:00:42;19.58;;;10.93;;
69981;SDS011;57319;56.274;43.980;2023-02-01T01:03:08;28.77;;;10.85;;
69981;SDS011;57319;56.274;43.980;2023-02-01T01:05:48;19.83;;;10.65;;
69981;SDS011;57319;56.274;43.980;2023-02-01T01:08:15;21.42;;;11.32;;
69981;SDS011;57319;56.274;43.980;2023-02-01T01:10:41;20.52;;;11.05;;
69981;SDS011;57319;56.274;43.980;2023-02-01T01:13:07;26.33;;;10.70;;
69981;SDS011;57319;56.274;43.980;2023-02-01T01:15:37;21.60;;;10.82;;
69981;SDS011;57319;56.274;43.980;2023-02-01T01:18:04;24.35;;;11.70;;
69981;SDS011;57319;56.274;43.980;2023-02-01T01:20:30;18.58;;;10.35;;
69981;SDS011;57319;56.274;43.980;2023-02-01T01:22:55;18.38;;;9.88;;
69981;SDS011;57319;56.274;43.980;2023-02-01T01:25:21;24.10;;;11.18;;
69981;SDS011;57319;56.274;43.980;2023-02-01T01:27:47;16.42;;;9.15;;
69981;SDS011;57319;56.274;43.980;2023-02-01T01:30:13;24.30;;;11.25;;
69981;SDS011;57319;56.274;43.980;2023-02-01T01:32:38;17.05;;;9.35;;
69981;SDS011;57319;56.274;43.980;2023-02-01T01:35:05;20.65;;;10.95;;
69981;SDS011;57319;56.274;43.980;2023-02-01T01:37:31;25.95;;;11.30;;
69981;SDS011;57319;56.274;43.980;2023-02-01T01:39:57;22.05;;;11.02;;
69981;SDS011;57319;56.274;43.980;2023-02-01T01:42:22;23.75;;;11.27;;
69981;SDS011;57319;56.274;43.980;2023-02-01T01:45:02;24.73;;;11.85;;
69981;SDS011;57319;56.274;43.980;2023-02-01T01:47:50;23.17;;;11.55;;
69981;SDS011;57319;56.274;43.980;2023-02-01T01:50:20;22.73;;;11.13;;
69981;SDS011;57319;56.274;43.980;2023-02-01T01:53:13;30.20;;;11.30;;
69981;SDS011;57319;56.274;43.980;2023-02-01T01:55:43;30.15;;;12.75;;
69981;SDS011;57319;56.274;43.980;2023-02-01T01:58:15;23.67;;;11.50;;
69981;SDS011;57319;56.274;43.980;2023-02-01T02:00:44;23.70;;;11.90;;
69981;SDS011;57319;56.274;43.980;2023-02-01T02:03:44;18.15;;;10.95;;
69981;SDS011;57319;56.274;43.980;2023-02-01T02:06:15;25.45;;;11.40;;
69981;SDS011;57319;56.274;43.980;2023-02-01T02:08:55;25.38;;;11.45;;
69981;SDS011;57319;56.274;43.980;2023-02-01T02:11:21;23.80;;;11.90;;
69981;SDS011;57319;56.274;43.980;2023-02-01T02:13:48;25.98;;;12.27;;
69981;SDS011;57319;56.274;43.980;2023-02-01T02:16:25;25.42;;;12.23;;
69981;SDS011;57319;56.274;43.980;2023-02-01T02:28:49;25.35;;;12.43;;
69981;SDS011;57319;56.274;43.980;2023-02-01T02:34:57;28.58;;;11.88;;
69981;SDS011;57319;56.274;43.980;2023-02-01T02:37:38;25.70;;;11.90;;
69981;SDS011;57319;56.274;43.980;2023-02-01T02:42:57;28.75;;;12.52;;
69981;SDS011;57319;56.274;43.980;2023-02-01T02:46:04;23.33;;;11.45;;
69981;SDS011;57319;56.274;43.980;2023-02-01T02:51:41;24.95;;;12.07;;
69981;SDS011;57319;56.274;43.980;2023-02-01T02:54:30;30.98;;;12.70;;
69981;SDS011;57319;56.274;43.980;2023-02-01T03:00:14;26.33;;;12.60;;
69981;SDS011;57319;56.274;43.980;2023-02-01T03:03:02;27.02;;;13.00;;
69981;SDS011;57319;56.274;43.980;2023-02-01T03:21:49;25.58;;;11.73;;
69981;SDS011;57319;56.274;43.980;2023-02-01T03:24:25;24.38;;;12.93;;
69981;SDS011;57319;56.274;43.980;2023-02-01T03:27:17;25.48;;;11.90;;
69981;SDS011;57319;56.274;43.980;2023-02-01T03:32:19;26.60;;;12.07;;
69981;SDS011;57319;56.274;43.980;2023-02-01T03:34:46;28.90;;;12.38;;
69981;SDS011;57319;56.274;43.980;2023-02-01T03:37:13;29.83;;;12.70;;
69981;SDS011;57319;56.274;43.980;2023-02-01T03:39:48;22.88;;;12.07;;
69981;SDS011;57319;56.274;43.980;2023-02-01T03:42:40;20.27;;;12.13;;
69981;SDS011;57319;56.274;43.980;2023-02-01T03:47:40;29.83;;;14.20;;
69981;SDS011;57319;56.274;43.980;2023-02-01T03:50:09;25.67;;;12.40;;
69981;SDS011;57319;56.274;43.980;2023-02-01T03:55:09;25.38;;;12.63;;
69981;SDS011;57319;56.274;43.980;2023-02-01T03:57:39;33.88;;;13.65;;
69981;SDS011;57319;56.274;43.980;2023-02-01T04:00:20;31.42;;;12.30;;
69981;SDS011;57319;56.274;43.980;2023-02-01T04:02:48;25.52;;;12.02;;
69981;SDS011;57319;56.274;43.980;2023-02-01T04:05:15;23.45;;;12.40;;
69981;SDS011;57319;56.274;43.980;2023-02-01T04:07:42;21.40;;;12.45;;
69981;SDS011;57319;56.274;43.980;2023-02-01T04:10:08;30.83;;;12.57;;
69981;SDS011;57319;56.274;43.980;2023-02-01T04:12:34;25.58;;;12.02;;
69981;SDS011;57319;56.274;43.980;2023-02-01T04:15:00;28.10;;;14.10;;
69981;SDS011;57319;56.274;43.980;2023-02-01T04:17:26;28.65;;;13.05;;
69981;SDS011;57319;56.274;43.980;2023-02-01T04:19:51;29.70;;;13.68;;
69981;SDS011;57319;56.274;43.980;2023-02-01T04:22:17;35.72;;;14.40;;
69981;SDS011;57319;56.274;43.980;2023-02-01T04:24:42;25.23;;;12.57;;
69981;SDS011;57319;56.274;43.980;2023-02-01T04:27:08;29.35;;;13.07;;
69981;SDS011;57319;56.274;43.980;2023-02-01T04:29:33;32.60;;;13.23;;
69981;SDS011;57319;56.274;43.980;2023-02-01T04:31:59;28.88;;;13.57;;
69981;SDS011;57319;56.274;43.980;2023-02-01T04:34:24;29.95;;;13.50;;
69981;SDS011;57319;56.274;43.980;2023-02-01T04:36:51;25.50;;;12.95;;
69981;SDS011;57319;56.274;43.980;2023-02-01T04:39:17;31.58;;;13.95;;
69981;SDS011;57319;56.274;43.980;2023-02-01T04:41:42;27.60;;;13.00;;
69981;SDS011;57319;56.274;43.980;2023-02-01T04:44:15;28.52;;;13.23;;
69981;SDS011;57319;56.274;43.980;2023-02-01T04:46:43;30.98;;;14.10;;
69981;SDS011;57319;56.274;43.980;2023-02-01T04:49:10;25.30;;;11.98;;
69981;SDS011;57319;56.274;43.980;2023-02-01T04:51:36;28.10;;;12.80;;
69981;SDS011;57319;56.274;43.980;2023-02-01T04:54:02;27.67;;;12.77;;
69981;SDS011;57319;56.274;43.980;2023-02-01T04:56:28;27.27;;;12.52;;
69981;SDS011;57319;56.274;43.980;2023-02-01T04:58:53;29.70;;;13.23;;
69981;SDS011;57319;56.274;43.980;2023-02-01T05:01:21;24.60;;;11.93;;
69981;SDS011;57319;56.274;43.980;2023-02-01T05:03:47;26.33;;;12.77;;
69981;SDS011;57319;56.274;43.980;2023-02-01T05:06:13;30.00;;;14.70;;
69981;SDS011;57319;56.274;43.980;2023-02-01T05:08:38;25.95;;;12.55;;
69981;SDS011;57319;56.274;43.980;2023-02-01T05:11:04;25.50;;;12.52;;
69981;SDS011;57319;56.274;43.980;2023-02-01T05:13:30;27.42;;;13.05;;
69981;SDS011;57319;56.274;43.980;2023-02-01T05:16:14;26.23;;;13.47;;
69981;SDS011;57319;56.274;43.980;2023-02-01T05:18:40;28.75;;;12.52;;
69981;SDS011;57319;56.274;43.980;2023-02-01T05:21:06;26.17;;;13.18;;
69981;SDS011;57319;56.274;43.980;2023-02-01T05:23:31;29.38;;;12.73;;
69981;SDS011;57319;56.274;43.980;2023-02-01T05:26:00;27.27;;;12.95;;
69981;SDS011;57319;56.274;43.980;2023-02-01T05:28:27;27.58;;;13.27;;
69981;SDS011;57319;56.274;43.980;2023-02-01T05:30:53;24.98;;;13.57;;
69981;SDS011;57319;56.274;43.980;2023-02-01T05:33:19;24.27;;;12.43;;
69981;SDS011;57319;56.274;43.980;2023-02-01T05:35:45;28.50;;;12.77;;
69981;SDS011;57319;56.274;43.980;2023-02-01T05:38:11;20.48;;;11.80;;
69981;SDS011;57319;56.274;43.980;2023-02-01T05:40:37;25.60;;;12.73;;
69981;SDS011;57319;56.274;43.980;2023-02-01T05:43:02;24.60;;;12.38;;
69981;SDS011;57319;56.274;43.980;2023-02-01T05:45:28;32.00;;;13.70;;
69981;SDS011;57319;56.274;43.980;2023-02-01T05:47:53;27.63;;;12.80;;
69981;SDS011;57319;56.274;43.980;2023-02-01T05:50:19;23.80;;;12.10;;
69981;SDS011;57319;56.274;43.980;2023-02-01T05:52:44;26.48;;;12.73;;
69981;SDS011;57319;56.274;43.980;2023-02-01T05:55:10;32.15;;;13.98;;
69981;SDS011;57319;56.274;43.980;2023-02-01T05:57:35;28.83;;;13.13;;
69981;SDS011;57319;56.274;43.980;2023-02-01T06:00:01;29.48;;;13.77;;
69981;SDS011;57319;56.274;43.980;2023-02-01T06:02:29;26.70;;;12.70;;
69981;SDS011;57319;56.274;43.980;2023-02-01T06:04:54;29.25;;;13.50;;
69981;SDS011;57319;56.274;43.980;2023-02-01T06:07:20;27.10;;;12.65;;
69981;SDS011;57319;56.274;43.980;2023-02-01T06:09:46;23.70;;;12.77;;
69981;SDS011;57319;56.274;43.980;2023-02-01T06:12:12;35.70;;;14.52;;
69981;SDS011;57319;56.274;43.980;2023-02-01T06:14:39;29.20;;;12.70;;
69981;SDS011;57319;56.274;43.980;2023-02-01T06:17:04;24.33;;;12.50;;
69981;SDS011;57319;56.274;43.980;2023-02-01T06:19:31;29.10;;;12.85;;
69981;SDS011;57319;56.274;43.980;2023-02-01T06:21:56;25.30;;;12.32;;
69981;SDS011;57319;56.274;43.980;2023-02-01T06:24:22;27.17;;;12.73;;
69981;SDS011;57319;56.274;43.980;2023-02-01T06:26:48;22.85;;;12.38;;
69981;SDS011;57319;56.274;43.980;2023-02-01T06:29:15;24.92;;;11.90;;
69981;SDS011;57319;56.274;43.980;2023-02-01T06:31:40;22.98;;;13.05;;
69981;SDS011;57319;56.274;43.980;2023-02-01T06:34:07;25.33;;;12.75;;
69981;SDS011;57319;56.274;43.980;2023-02-01T06:36:33;22.08;;;11.18;;
69981;SDS011;57319;56.274;43.980;2023-02-01T06:38:58;25.85;;;13.80;;
69981;SDS011;57319;56.274;43.980;2023-02-01T06:41:25;25.77;;;13.05;;
69981;SDS011;57319;56.274;43.980;2023-02-01T06:43:51;22.10;;;11.93;;
69981;SDS011;57319;56.274;43.980;2023-02-01T06:46:17;23.35;;;11.30;;
69981;SDS011;57319;56.274;43.980;2023-02-01T06:48:42;23.52;;;11.02;;
69981;SDS011;57319;56.274;43.980;2023-02-01T06:51:21;18.98;;;10.40;;
69981;SDS011;57319;56.274;43.980;2023-02-01T06:53:48;25.98;;;12.02;;
69981;SDS011;57319;56.274;43.980;2023-02-01T06:56:14;27.40;;;12.45;;
69981;SDS011;57319;56.274;43.980;2023-02-01T06:58:39;25.25;;;12.00;;
69981;SDS011;57319;56.274;43.980;2023-02-01T07:01:06;28.00;;;12.00;;
69981;SDS011;57319;56.274;43.980;2023-02-01T07:03:33;26.33;;;12.43;;
69981;SDS011;57319;56.274;43.980;2023-02-01T07:05:58;26.23;;;12.20;;
69981;SDS011;57319;56.274;43.980;2023-02-01T07:08:24;24.35;;;11.65;;
69981;SDS011;57319;56.274;43.980;2023-02-01T07:10:51;32.00;;;12.40;;
69981;SDS011;57319;56.274;43.980;2023-02-01T07:13:17;22.52;;;12.38;;
69981;SDS011;57319;56.274;43.980;2023-02-01T07:15:42;24.80;;;12.25;;
69981;SDS011;57319;56.274;43.980;2023-02-01T07:18:08;24.70;;;12.25;;
69981;SDS011;57319;56.274;43.980;2023-02-01T07:20:34;26.92;;;12.23;;
69981;SDS011;57319;56.274;43.980;2023-02-01T07:22:59;25.98;;;12.35;;
69981;SDS011;57319;56.274;43.980;2023-02-01T07:25:25;24.83;;;11.75;;
69981;SDS011;57319;56.274;43.980;2023-02-01T07:27:50;22.23;;;11.32;;
69981;SDS011;57319;56.274;43.980;2023-02-01T07:30:16;22.52;;;11.18;;
69981;SDS011;57319;56.274;43.980;2023-02-01T07:32:42;24.90;;;11.77;;
69981;SDS011;57319;56.274;43.980;2023-02-01T07:35:08;23.15;;;12.05;;
69981;SDS011;57319;56.274;43.980;2023-02-01T07:37:33;23.02;;;12.20;;
69981;SDS011;57319;56.274;43.980;2023-02-01T07:39:59;25.80;;;11.18;;
69981;SDS011;57319;56.274;43.980;2023-02-01T07:42:25;27.15;;;11.85;;
69981;SDS011;57319;56.274;43.980;2023-02-01T07:44:50;22.38;;;11.30;;
69981;SDS011;57319;56.274;43.980;2023-02-01T07:47:16;26.05;;;11.32;;
69981;SDS011;57319;56.274;43.980;2023-02-01T07:49:41;26.67;;;12.07;;
69981;SDS011;57319;56.274;43.980;2023-02-01T07:52:07;24.15;;;12.30;;
69981;SDS011;57319;56.274;43.980;2023-02-01T07:54:32;28.95;;;12.43;;
69981;SDS011;57319;56.274;43.980;2023-02-01T07:56:58;23.40;;;12.40;;
69981;SDS011;57319;56.274;43.980;2023-02-01T07:59:23;21.35;;;10.68;;
69981;SDS011;57319;56.274;43.980;2023-02-01T08:01:49;21.33;;;10.73;;
69981;SDS011;57319;56.274;43.980;2023-02-01T08:04:14;27.88;;;11.98;;
69981;SDS011;57319;56.274;43.980;2023-02-01T08:06:40;23.85;;;11.88;;
69981;SDS011;57319;56.274;43.980;2023-02-01T08:09:06;19.00;;;10.68;;
69981;SDS011;57319;56.274;43.980;2023-02-01T08:11:36;27.08;;;10.85;;
69981;SDS011;57319;56.274;43.980;2023-02-01T08:14:03;26.20;;;11.70;;
69981;SDS011;57319;56.274;43.980;2023-02-01T08:16:30;22.80;;;12.07;;
69981;SDS011;57319;56.274;43.980;2023-02-01T08:18:56;23.60;;;10.60;;
69981;SDS011;57319;56.274;43.980;2023-02-01T08:21:23;23.55;;;11.30;;
69981;SDS011;57319;56.274;43.980;2023-02-01T08:23:50;27.50;;;11.02;;
69981;SDS011;57319;56.274;43.980;2023-02-01T08:26:18;21.90;;;11.27;;
69981;SDS011;57319;56.274;43.980;2023-02-01T08:28:49;17.17;;;10.18;;
69981;SDS011;57319;56.274;43.980;2023-02-01T08:31:20;23.13;;;11.50;;
69981;SDS011;57319;56.274;43.980;2023-02-01T08:33:51;23.58;;;10.88;;
69981;SDS011;57319;56.274;43.980;2023-02-01T08:36:29;22.50;;;11.00;;
69981;SDS011;57319;56.274;43.980;2023-02-01T08:38:55;22.63;;;11.15;;
69981;SDS011;57319;56.274;43.980;2023-02-01T08:41:23;24.40;;;11.55;;
69981;SDS011;57319;56.274;43.980;2023-02-01T08:43:51;23.42;;;11.23;;
69981;SDS011;57319;56.274;43.980;2023-02-01T08:46:17;24.85;;;12.23;;
69981;SDS011;57319;56.274;43.980;2023-02-01T08:48:44;23.00;;;11.45;;
69981;SDS011;57319;56.274;43.980;2023-02-01T08:51:11;25.27;;;12.07;;
69981;SDS011;57319;56.274;43.980;2023-02-01T08:53:38;31.55;;;12.30;;
69981;SDS011;57319;56.274;43.980;2023-02-01T08:56:11;28.42;;;11.75;;
69981;SDS011;57319;56.274;43.980;2023-02-01T08:58:38;25.27;;;11.80;;
69981;SDS011;57319;56.274;43.980;2023-02-01T09:01:09;23.75;;;11.43;;
69981;SDS011;57319;56.274;43.980;2023-02-01T09:03:38;23.05;;;12.18;;
69981;SDS011;57319;56.274;43.980;2023-02-01T09:06:05;23.20;;;11.57;;
69981;SDS011;57319;56.274;43.980;2023-02-01T09:08:32;24.80;;;11.27;;
69981;SDS011;57319;56.274;43.980;2023-02-01T09:11:01;22.48;;;11.40;;
69981;SDS011;57319;56.274;43.980;2023-02-01T09:13:30;28.25;;;12.77;;
69981;SDS011;57319;56.274;43.980;2023-02-01T09:15:56;20.80;;;12.15;;
69981;SDS011;57319;56.274;43.980;2023-02-01T09:18:21;25.88;;;12.90;;
69981;SDS011;57319;56.274;43.980;2023-02-01T09:20:47;29.20;;;12.45;;
69981;SDS011;57319;56.274;43.980;2023-02-01T09:23:12;25.30;;;11.57;;
69981;SDS011;57319;56.274;43.980;2023-02-01T09:25:38;26.25;;;12.32;;
69981;SDS011;57319;56.274;43.980;2023-02-01T09:28:04;26.27;;;12.70;;
69981;SDS011;57319;56.274;43.980;2023-02-01T09:30:34;23.60;;;12.55;;
69981;SDS011;57319;56.274;43.980;2023-02-01T09:33:01;24.80;;;12.73;;
69981;SDS011;57319;56.274;43.980;2023-02-01T09:35:27;22.75;;;12.38;;
69981;SDS011;57319;56.274;43.980;2023-02-01T09:37:53;30.10;;;12.50;;
69981;SDS011;57319;56.274;43.980;2023-02-01T09:40:19;26.30;;;13.15;;
69981;SDS011;57319;56.274;43.980;2023-02-01T09:43:05;27.67;;;13.88;;
69981;SDS011;57319;56.274;43.980;2023-02-01T09:48:14;29.30;;;12.93;;
69981;SDS011;57319;56.274;43.980;2023-02-01T09:50:48;27.50;;;11.55;;
69981;SDS011;57319;56.274;43.980;2023-02-01T09:53:18;27.40;;;12.50;;
69981;SDS011;57319;56.274;43.980;2023-02-01T09:55:59;29.10;;;12.10;;
69981;SDS011;57319;56.274;43.980;2023-02-01T09:58:33;28.23;;;12.35;;
69981;SDS011;57319;56.274;43.980;2023-02-01T10:01:03;27.38;;;11.60;;
69981;SDS011;57319;56.274;43.980;2023-02-01T10:03:35;26.67;;;13.38;;
69981;SDS011;57319;56.274;43.980;2023-02-01T10:06:48;30.13;;;12.68;;
69981;SDS011;57319;56.274;43.980;2023-02-01T10:17:16;35.13;;;12.25;;
69981;SDS011;57319;56.274;43.980;2023-02-01T10:25:13;29.42;;;13.20;;
69981;SDS011;57319;56.274;43.980;2023-02-01T10:27:46;24.75;;;12.50;;
69981;SDS011;57319;56.274;43.980;2023-02-01T10:32:38;30.58;;;14.15;;
69981;SDS011;57319;56.274;43.980;2023-02-01T10:35:11;27.00;;;13.18;;
69981;SDS011;57319;56.274;43.980;2023-02-01T10:37:40;37.78;;;13.52;;
69981;SDS011;57319;56.274;43.980;2023-02-01T10:40:23;25.33;;;12.25;;
69981;SDS011;57319;56.274;43.980;2023-02-01T10:43:00;36.90;;;14.43;;
69981;SDS011;57319;56.274;43.980;2023-02-01T10:45:28;27.33;;;13.18;;
69981;SDS011;57319;56.274;43.980;2023-02-01T10:47:56;26.92;;;13.25;;
69981;SDS011;57319;56.274;43.980;2023-02-01T10:50:33;30.08;;;13.02;;
69981;SDS011;57319;56.274;43.980;2023-02-01T10:55:49;31.75;;;14.23;;
69981;SDS011;57319;56.274;43.980;2023-02-01T10:58:25;27.70;;;13.18;;
69981;SDS011;57319;56.274;43.980;2023-02-01T11:01:04;31.73;;;14.02;;
69981;SDS011;57319;56.274;43.980;2023-02-01T11:03:40;31.65;;;13.48;;
69981;SDS011;57319;56.274;43.980;2023-02-01T11:06:18;33.40;;;13.82;;
69981;SDS011;57319;56.274;43.980;2023-02-01T11:08:49;29.55;;;14.00;;
69981;SDS011;57319;56.274;43.980;2023-02-01T11:11:19;31.75;;;14.35;;
69981;SDS011;57319;56.274;43.980;2023-02-01T11:13:51;29.45;;;14.32;;
69981;SDS011;57319;56.274;43.980;2023-02-01T11:16:18;36.00;;;14.95;;
69981;SDS011;57319;56.274;43.980;2023-02-01T11:18:44;31.48;;;14.18;;
69981;SDS011;57319;56.274;43.980;2023-02-01T11:21:11;35.80;;;14.98;;
69981;SDS011;57319;56.274;43.980;2023-02-01T11:23:41;34.92;;;15.85;;
69981;SDS011;57319;56.274;43.980;2023-02-01T11:26:14;30.33;;;14.30;;
69981;SDS011;57319;56.274;43.980;2023-02-01T11:28:51;31.80;;;13.90;;
69981;SDS011;57319;56.274;43.980;2023-02-01T11:31:22;33.17;;;14.93;;
69981;SDS011;57319;56.274;43.980;2023-02-01T11:33:51;34.33;;;14.15;;
69981;SDS011;57319;56.274;43.980;2023-02-01T11:36:21;31.48;;;14.13;;
69981;SDS011;57319;56.274;43.980;2023-02-01T11:39:07;37.72;;;14.98;;
69981;SDS011;57319;56.274;43.980;2023-02-01T11:41:55;31.17;;;14.85;;
69981;SDS011;57319;56.274;43.980;2023-02-01T11:44:22;33.53;;;15.07;;
69981;SDS011;57319;56.274;43.980;2023-02-01T11:46:55;32.70;;;15.77;;
69981;SDS011;57319;56.274;43.980;2023-02-01T11:49:25;31.88;;;14.68;;
69981;SDS011;57319;56.274;43.980;2023-02-01T12:06:14;27.63;;;14.05;;
69981;SDS011;57319;56.274;43.980;2023-02-01T12:14:21;40.33;;;15.80;;
69981;SDS011;57319;56.274;43.980;2023-02-01T12:20:21;32.45;;;15.10;;
69981;SDS011;57319;56.274;43.980;2023-02-01T12:43:12;39.70;;;16.20;;
69981;SDS011;57319;56.274;43.980;2023-02-01T12:45:52;35.95;;;15.50;;
69981;SDS011;57319;56.274;43.980;2023-02-01T12:48:32;36.40;;;16.23;;
69981;SDS011;57319;56.274;43.980;2023-02-01T12:51:04;40.33;;;16.90;;
69981;SDS011;57319;56.274;43.980;2023-02-01T12:53:38;37.30;;;15.85;;
69981;SDS011;57319;56.274;43.980;2023-02-01T12:59:17;31.25;;;15.13;;
69981;SDS011;57319;56.274;43.980;2023-02-01T13:05:04;42.05;;;16.38;;
69981;SDS011;57319;56.274;43.980;2023-02-01T13:07:42;38.15;;;15.93;;
69981;SDS011;57319;56.274;43.980;2023-02-01T13:10:29;32.60;;;15.20;;
69981;SDS011;57319;56.274;43.980;2023-02-01T13:13:02;38.08;;;16.48;;
69981;SDS011;57319;56.274;43.980;2023-02-01T13:15:39;40.63;;;16.83;;
69981;SDS011;57319;56.274;43.980;2023-02-01T13:18:11;39.10;;;16.17;;
69981;SDS011;57319;56.274;43.980;2023-02-01T13:23:31;42.33;;;16.65;;
69981;SDS011;57319;56.274;43.980;2023-02-01T13:26:01;40.60;;;15.73;;
69981;SDS011;57319;56.274;43.980;2023-02-01T13:36:37;39.72;;;16.90;;
69981;SDS011;57319;56.274;43.980;2023-02-01T13:42:05;36.72;;;16.35;;
69981;SDS011;57319;56.274;43.980;2023-02-01T13:45:00;36.42;;;16.08;;
69981;SDS011;57319;56.274;43.980;2023-02-01T13:47:30;39.92;;;16.85;;
69981;SDS011;57319;56.274;43.980;2023-02-01T13:50:19;37.20;;;16.80;;
69981;SDS011;57319;56.274;43.980;2023-02-01T13:52:56;38.45;;;16.27;;
69981;SDS011;57319;56.274;43.980;2023-02-01T13:58:10;41.45;;;17.65;;
69981;SDS011;57319;56.274;43.980;2023-02-01T14:00:41;45.28;;;17.80;;
69981;SDS011;57319;56.274;43.980;2023-02-01T14:03:17;47.45;;;16.77;;
69981;SDS011;57319;56.274;43.980;2023-02-01T14:08:21;50.60;;;18.85;;
69981;SDS011;57319;56.274;43.980;2023-02-01T14:10:53;39.08;;;17.90;;
69981;SDS011;57319;56.274;43.980;2023-02-01T14:13:34;48.20;;;18.10;;
69981;SDS011;57319;56.274;43.980;2023-02-01T14:23:45;45.80;;;17.90;;
69981;SDS011;57319;56.274;43.980;2023-02-01T14:26:14;41.75;;;17.15;;
69981;SDS011;57319;56.274;43.980;2023-02-01T14:28:43;41.78;;;16.40;;
69981;SDS011;57319;56.274;43.980;2023-02-01T14:44:53;38.10;;;16.88;;
69981;SDS011;57319;56.274;43.980;2023-02-01T14:47:38;43.90;;;16.75;;
69981;SDS011;57319;56.274;43.980;2023-02-01T14:52:36;45.80;;;17.70;;
69981;SDS011;57319;56.274;43.980;2023-02-01T14:55:14;47.33;;;18.58;;
69981;SDS011;57319;56.274;43.980;2023-02-01T14:57:44;39.20;;;16.95;;
69981;SDS011;57319;56.274;43.980;2023-02-01T15:00:21;41.70;;;17.45;;
69981;SDS011;57319;56.274;43.980;2023-02-01T15:02:53;43.05;;;16.80;;
69981;SDS011;57319;56.274;43.980;2023-02-01T15:05:29;44.97;;;17.02;;
69981;SDS011;57319;56.274;43.980;2023-02-01T15:07:57;38.10;;;17.55;;
69981;SDS011;57319;56.274;43.980;2023-02-01T15:10:28;40.88;;;16.02;;
69981;SDS011;57319;56.274;43.980;2023-02-01T15:12:56;41.80;;;18.27;;
69981;SDS011;57319;56.274;43.980;2023-02-01T15:15:22;38.95;;;17.55;;
69981;SDS011;57319;56.274;43.980;2023-02-01T15:17:56;40.72;;;17.13;;
69981;SDS011;57319;56.274;43.980;2023-02-01T15:20:28;37.80;;;17.92;;
69981;SDS011;57319;56.274;43.980;2023-02-01T15:25:28;45.75;;;18.13;;
69981;SDS011;57319;56.274;43.980;2023-02-01T15:27:55;47.50;;;19.52;;
69981;SDS011;57319;56.274;43.980;2023-02-01T15:30:23;47.53;;;18.13;;
69981;SDS011;57319;56.274;43.980;2023-02-01T15:33:07;40.90;;;18.63;;
69981;SDS011;57319;56.274;43.980;2023-02-01T15:35:44;47.25;;;18.73;;
69981;SDS011;57319;56.274;43.980;2023-02-01T15:38:18;47.33;;;19.48;;
69981;SDS011;57319;56.274;43.980;2023-02-01T15:43:24;45.63;;;18.98;;
69981;SDS011;57319;56.274;43.980;2023-02-01T15:45:51;49.38;;;20.08;;
69981;SDS011;57319;56.274;43.980;2023-02-01T15:48:21;44.33;;;18.98;;
69981;SDS011;57319;56.274;43.980;2023-02-01T15:50:50;51.67;;;20.23;;
69981;SDS011;57319;56.274;43.980;2023-02-01T15:53:18;45.72;;;20.52;;
69981;SDS011;57319;56.274;43.980;2023-02-01T15:55:46;51.20;;;20.92;;
69981;SDS011;57319;56.274;43.980;2023-02-01T15:58:20;49.92;;;20.95;;
69981;SDS011;57319;56.274;43.980;2023-02-01T16:00:56;56.92;;;21.80;;
69981;SDS011;57319;56.274;43.980;2023-02-01T16:03:32;48.60;;;21.33;;
69981;SDS011;57319;56.274;43.980;2023-02-01T16:06:04;52.17;;;23.05;;
69981;SDS011;57319;56.274;43.980;2023-02-01T16:08:31;58.00;;;22.77;;
69981;SDS011;57319;56.274;43.980;2023-02-01T16:15:59;48.58;;;20.77;;
69981;SDS011;57319;56.274;43.980;2023-02-01T16:18:25;56.63;;;21.80;;
69981;SDS011;57319;56.274;43.980;2023-02-01T16:20:51;54.33;;;21.83;;
69981;SDS011;57319;56.274;43.980;2023-02-01T16:23:16;55.13;;;23.58;;
69981;SDS011;57319;56.274;43.980;2023-02-01T16:25:42;57.70;;;22.75;;
69981;SDS011;57319;56.274;43.980;2023-02-01T16:28:08;61.08;;;23.63;;
69981;SDS011;57319;56.274;43.980;2023-02-01T16:30:33;61.17;;;24.23;;
69981;SDS011;57319;56.274;43.980;2023-02-01T16:33:00;57.15;;;24.83;;
69981;SDS011;57319;56.274;43.980;2023-02-01T16:35:36;54.05;;;23.30;;
69981;SDS011;57319;56.274;43.980;2023-02-01T16:38:10;58.75;;;25.77;;
69981;SDS011;57319;56.274;43.980;2023-02-01T16:40:41;65.60;;;25.33;;
69981;SDS011;57319;56.274;43.980;2023-02-01T16:43:12;60.17;;;24.35;;
69981;SDS011;57319;56.274;43.980;2023-02-01T16:45:40;60.78;;;23.98;;
69981;SDS011;57319;56.274;43.980;2023-02-01T16:48:07;60.60;;;24.00;;
69981;SDS011;57319;56.274;43.980;2023-02-01T16:50:33;57.78;;;24.60;;
69981;SDS011;57319;56.274;43.980;2023-02-01T16:52:59;59.92;;;24.00;;
69981;SDS011;57319;56.274;43.980;2023-02-01T16:55:26;72.03;;;26.55;;
69981;SDS011;57319;56.274;43.980;2023-02-01T16:57:52;61.42;;;25.42;;
69981;SDS011;57319;56.274;43.980;2023-02-01T17:00:18;62.95;;;24.50;;
69981;SDS011;57319;56.274;43.980;2023-02-01T17:02:45;62.53;;;25.88;;
69981;SDS011;57319;56.274;43.980;2023-02-01T17:05:11;64.70;;;25.77;;
69981;SDS011;57319;56.274;43.980;2023-02-01T17:07:37;58.00;;;24.20;;
69981;SDS011;57319;56.274;43.980;2023-02-01T17:10:05;67.28;;;25.50;;
69981;SDS011;57319;56.274;43.980;2023-02-01T17:12:36;59.75;;;25.33;;
69981;SDS011;57319;56.274;43.980;2023-02-01T17:15:01;58.20;;;25.20;;
69981;SDS011;57319;56.274;43.980;2023-02-01T17:17:32;63.55;;;26.67;;